createdAt,value
2023-04-14T00:00:36.795Z,5.40
2023-04-14T00:03:03.970Z,5.30
2023-04-14T00:05:31.567Z,5.20
2023-04-14T00:07:58.642Z,5.10
2023-04-14T00:10:25.601Z,5.00
2023-04-14T00:12:52.382Z,5.00
2023-04-14T00:15:18.993Z,5.00
2023-04-14T00:17:45.928Z,4.70
2023-04-14T00:20:12.694Z,4.60
2023-04-14T00:22:39.263Z,4.50
2023-04-14T00:25:06.495Z,4.50
2023-04-14T00:27:33.092Z,4.60
2023-04-14T00:29:59.632Z,4.80
2023-04-14T00:32:26.128Z,5.00
2023-04-14T00:34:52.696Z,5.10
2023-04-14T00:37:19.191Z,5.20
2023-04-14T00:39:45.777Z,5.30
2023-04-14T00:42:12.324Z,5.40
2023-04-14T00:44:38.932Z,5.50
2023-04-14T00:47:05.510Z,5.60
2023-04-14T00:49:32.122Z,5.60
2023-04-14T00:51:59.217Z,5.60
2023-04-14T00:54:26.412Z,5.70
2023-04-14T00:56:54.343Z,5.60
2023-04-14T00:59:21.010Z,5.40
2023-04-14T01:01:47.629Z,5.30
2023-04-14T01:04:15.803Z,5.00
2023-04-14T01:06:42.427Z,4.90
2023-04-14T01:09:09.496Z,4.80
2023-04-14T01:12:21.417Z,4.70
2023-04-14T01:15:10.762Z,4.50
2023-04-14T01:17:56.396Z,4.40
2023-04-14T01:20:28.036Z,4.40
2023-04-14T01:23:01.278Z,4.40
2023-04-14T01:25:58.331Z,4.40
2023-04-14T01:28:42.426Z,4.30
2023-04-14T01:31:28.226Z,4.40
2023-04-14T01:34:05.848Z,4.50
2023-04-14T01:36:42.780Z,4.30
2023-04-14T01:39:14.041Z,4.40
2023-04-14T01:41:46.040Z,4.60
2023-04-14T01:44:14.369Z,4.70
2023-04-14T01:46:42.882Z,4.70
2023-04-14T01:49:10.828Z,4.70
2023-04-14T01:51:40.481Z,4.60
2023-04-14T01:54:09.744Z,4.70
2023-04-14T01:56:39.676Z,4.50
2023-04-14T01:59:06.410Z,4.30
2023-04-14T02:01:34.436Z,4.20
2023-04-14T02:04:03.451Z,4.10
2023-04-14T02:06:32.044Z,4.00
2023-04-14T02:09:03.632Z,3.90
2023-04-14T02:11:32.002Z,3.80
2023-04-14T02:14:00.454Z,3.80
2023-04-14T02:16:28.750Z,3.60
2023-04-14T02:18:55.471Z,3.50
2023-04-14T02:21:26.420Z,3.40
2023-04-14T02:23:53.191Z,3.40
2023-04-14T02:26:23.292Z,3.50
2023-04-14T02:28:53.761Z,3.50
2023-04-14T02:31:25.241Z,3.60
2023-04-14T02:33:58.047Z,3.90
2023-04-14T02:36:34.004Z,4.10
2023-04-14T02:39:14.199Z,4.30
2023-04-14T02:41:43.426Z,4.40
2023-04-14T02:44:24.382Z,4.30
2023-04-14T02:47:11.451Z,4.20
2023-04-14T02:49:43.091Z,4.20
2023-04-14T02:52:12.495Z,4.20
2023-04-14T02:54:42.219Z,4.10
2023-04-14T02:57:09.474Z,4.10
2023-04-14T02:59:37.544Z,4.10
2023-04-14T03:02:06.071Z,4.10
2023-04-14T03:04:35.050Z,4.10
2023-04-14T03:07:02.932Z,3.90
2023-04-14T03:09:31.836Z,3.80
2023-04-14T03:12:00.364Z,3.90
2023-04-14T03:14:27.898Z,3.90
2023-04-14T03:16:55.554Z,3.70
2023-04-14T03:19:23.802Z,3.80
2023-04-14T03:21:51.631Z,4.10
2023-04-14T03:24:27.219Z,4.20
2023-04-14T03:26:58.252Z,4.30
2023-04-14T03:29:28.576Z,4.30
2023-04-14T03:31:57.752Z,4.30
2023-04-14T03:34:31.607Z,4.20
2023-04-14T03:36:59.375Z,4.10
2023-04-14T03:39:28.025Z,3.80
2023-04-14T03:41:57.274Z,3.70
2023-04-14T03:44:26.166Z,3.50
2023-04-14T03:46:54.405Z,3.40
2023-04-14T03:49:23.974Z,3.30
2023-04-14T03:51:53.297Z,3.20
2023-04-14T03:54:23.805Z,3.20
2023-04-14T03:56:51.926Z,3.10
2023-04-14T03:59:20.719Z,3.20
2023-04-14T04:01:48.141Z,3.10
2023-04-14T04:04:15.576Z,3.00
2023-04-14T04:06:43.131Z,2.90
2023-04-14T04:09:12.457Z,2.80
2023-04-14T04:11:41.842Z,2.70
2023-04-14T04:14:09.542Z,2.70
2023-04-14T04:16:38.323Z,2.70
2023-04-14T04:19:06.346Z,2.60
2023-04-14T04:21:35.195Z,2.70
2023-04-14T04:24:04.443Z,2.60
2023-04-14T04:26:31.226Z,2.60
2023-04-14T04:28:58.877Z,2.60
2023-04-14T04:31:27.580Z,2.60
2023-04-14T04:33:55.069Z,2.70
2023-04-14T04:36:22.100Z,2.70
2023-04-14T04:38:49.885Z,2.70
2023-04-14T04:41:24.631Z,2.60
2023-04-14T04:43:51.152Z,2.40
2023-04-14T04:46:40.421Z,2.40
2023-04-14T04:49:06.955Z,2.50
2023-04-14T04:51:33.534Z,2.50
2023-04-14T04:54:00.188Z,2.60
2023-04-14T04:56:27.143Z,2.60
2023-04-14T04:58:53.849Z,2.70
2023-04-14T05:01:20.492Z,2.70
2023-04-14T05:03:47.398Z,2.70
2023-04-14T05:06:14.020Z,2.70
2023-04-14T05:08:40.664Z,2.70
2023-04-14T05:11:07.273Z,2.80
2023-04-14T05:13:33.935Z,2.80
2023-04-14T05:16:07.731Z,2.90
2023-04-14T05:18:36.090Z,2.90
2023-04-14T05:21:06.957Z,2.80
2023-04-14T05:23:34.420Z,2.90
2023-04-14T05:26:16.317Z,2.90
2023-04-14T05:28:47.594Z,3.00
2023-04-14T05:31:14.211Z,3.20
2023-04-14T05:33:40.954Z,3.20
2023-04-14T05:36:07.674Z,3.40
2023-04-14T05:38:39.826Z,3.70
2023-04-14T05:41:07.361Z,3.70
2023-04-14T05:43:33.932Z,3.60
2023-04-14T05:46:01.402Z,3.60
2023-04-14T05:48:30.327Z,3.60
2023-04-14T05:50:57.785Z,3.70
2023-04-14T05:53:24.338Z,3.80
2023-04-14T05:55:53.796Z,3.80
2023-04-14T05:58:20.344Z,3.90
2023-04-14T06:00:46.989Z,4.10
2023-04-14T06:03:13.857Z,4.40
2023-04-14T06:05:40.566Z,4.60
2023-04-14T06:08:07.122Z,4.70
2023-04-14T06:10:35.402Z,4.80
2023-04-14T06:13:01.878Z,4.90
2023-04-14T06:15:29.551Z,5.10
2023-04-14T06:17:56.209Z,5.10
2023-04-14T06:20:22.886Z,5.20
2023-04-14T06:22:49.435Z,5.40
2023-04-14T06:25:16.346Z,5.40
2023-04-14T06:27:43.561Z,5.50
2023-04-14T06:30:10.531Z,5.40
2023-04-14T06:32:37.214Z,5.50
2023-04-14T06:35:04.697Z,5.40
2023-04-14T06:37:31.983Z,5.50
2023-04-14T06:39:58.510Z,5.70
2023-04-14T06:42:25.506Z,5.80
2023-04-14T06:44:52.064Z,5.90
2023-04-14T06:47:20.840Z,6.00
2023-04-14T06:49:47.909Z,6.10
2023-04-14T06:52:14.475Z,6.30
2023-04-14T06:54:42.068Z,6.40
2023-04-14T06:57:08.902Z,6.70
2023-04-14T06:59:35.498Z,6.90
2023-04-14T07:02:02.400Z,7.00
2023-04-14T07:04:29.199Z,7.10
2023-04-14T07:07:00.694Z,7.20
2023-04-14T07:09:28.718Z,7.80
2023-04-14T07:11:57.433Z,8.60
2023-04-14T07:14:24.581Z,9.70
2023-04-14T07:16:52.211Z,10.40
2023-04-14T07:19:19.401Z,10.80
2023-04-14T07:21:46.856Z,11.90
2023-04-14T07:24:15.381Z,12.80
2023-04-14T07:26:44.016Z,13.00
2023-04-14T07:29:10.582Z,13.60
2023-04-14T07:31:37.933Z,14.00
2023-04-14T07:34:04.981Z,14.30
2023-04-14T07:36:32.397Z,14.60
2023-04-14T07:38:59.008Z,14.60
2023-04-14T07:41:26.603Z,15.60
2023-04-14T07:43:55.480Z,15.10
2023-04-14T07:46:22.093Z,15.10
2023-04-14T07:48:48.662Z,15.50
2023-04-14T07:51:15.406Z,16.10
2023-04-14T07:53:43.512Z,15.00
2023-04-14T07:56:10.663Z,14.50
2023-04-14T07:58:37.610Z,14.30
2023-04-14T08:01:04.992Z,14.00
2023-04-14T08:03:31.681Z,14.70
2023-04-14T08:05:58.410Z,14.20
2023-04-14T08:08:25.886Z,15.00
2023-04-14T08:10:52.410Z,15.20
2023-04-14T08:13:19.188Z,15.30
2023-04-14T08:15:45.878Z,15.00
2023-04-14T08:18:12.612Z,15.40
2023-04-14T08:20:39.384Z,15.70
2023-04-14T08:23:06.112Z,15.60
2023-04-14T08:25:32.740Z,16.20
2023-04-14T08:27:59.224Z,16.10
2023-04-14T08:30:26.293Z,16.20
2023-04-14T08:32:52.865Z,16.30
2023-04-14T08:35:38.738Z,16.60
2023-04-14T08:38:08.117Z,16.60
2023-04-14T08:40:43.228Z,16.30
2023-04-14T08:43:12.426Z,16.80
2023-04-14T08:45:41.696Z,16.50
2023-04-14T08:48:09.625Z,16.20
2023-04-14T08:50:49.219Z,16.00
2023-04-14T08:53:18.278Z,17.00
2023-04-14T08:55:45.427Z,16.80
2023-04-14T08:58:12.107Z,16.60
2023-04-14T09:00:40.006Z,16.00
2023-04-14T09:03:07.845Z,16.20
2023-04-14T09:05:34.854Z,15.60
2023-04-14T09:08:02.129Z,15.90
2023-04-14T09:10:30.206Z,16.70
2023-04-14T09:12:57.360Z,16.80
2023-04-14T09:15:27.129Z,16.00
2023-04-14T09:17:55.027Z,16.60
2023-04-14T09:20:37.999Z,17.00
2023-04-14T09:23:09.135Z,17.40
2023-04-14T09:25:36.655Z,17.90
2023-04-14T09:28:03.280Z,17.80
2023-04-14T09:30:31.723Z,17.70
2023-04-14T09:32:58.664Z,18.20
2023-04-14T09:35:48.534Z,18.40
2023-04-14T09:38:16.857Z,17.80
2023-04-14T09:40:44.793Z,17.60
2023-04-14T09:43:25.325Z,17.90
2023-04-14T09:45:52.444Z,18.20
2023-04-14T09:48:20.071Z,18.30
2023-04-14T09:51:07.206Z,18.10
2023-04-14T09:53:35.517Z,19.30
2023-04-14T09:56:05.851Z,20.10
2023-04-14T09:58:36.701Z,20.10
2023-04-14T10:01:14.396Z,20.10
2023-04-14T10:03:46.252Z,19.90
2023-04-14T10:06:20.998Z,19.80
2023-04-14T10:08:48.995Z,19.50
2023-04-14T10:11:19.896Z,20.60
2023-04-14T10:13:48.960Z,21.30
2023-04-14T10:16:15.793Z,21.00
2023-04-14T10:18:43.458Z,21.10
2023-04-14T10:21:11.275Z,20.20
2023-04-14T10:23:39.526Z,20.90
2023-04-14T10:26:07.858Z,21.00
2023-04-14T10:28:35.935Z,21.40
2023-04-14T10:31:05.949Z,21.50
2023-04-14T10:33:32.568Z,21.00
2023-04-14T10:36:03.523Z,19.50
2023-04-14T10:38:40.636Z,20.40
2023-04-14T10:41:07.646Z,20.40
2023-04-14T10:43:38.045Z,19.90
2023-04-14T10:46:06.139Z,19.70
2023-04-14T10:48:34.822Z,20.40
2023-04-14T10:51:06.788Z,20.90
2023-04-14T10:53:37.598Z,21.80
2023-04-14T10:56:05.947Z,21.90
2023-04-14T10:58:35.971Z,22.10
2023-04-14T11:01:24.355Z,23.00
2023-04-14T11:03:51.415Z,23.00
2023-04-14T11:06:57.005Z,21.90
2023-04-14T11:09:30.280Z,20.60
2023-04-14T11:11:59.585Z,21.50
2023-04-14T11:14:35.903Z,21.10
2023-04-14T11:17:04.885Z,20.60
2023-04-14T11:19:32.199Z,20.50
2023-04-14T11:21:58.856Z,21.00
2023-04-14T11:24:26.482Z,21.20
2023-04-14T11:26:56.431Z,21.80
2023-04-14T11:29:23.151Z,22.50
2023-04-14T11:32:06.400Z,21.70
2023-04-14T11:34:36.231Z,23.00
2023-04-14T11:37:03.635Z,23.40
2023-04-14T11:39:30.346Z,23.30
2023-04-14T11:42:00.345Z,23.90
2023-04-14T11:44:27.410Z,24.40
2023-04-14T11:46:54.128Z,23.50
2023-04-14T11:49:33.488Z,23.10
2023-04-14T11:52:05.571Z,23.20
2023-04-14T11:54:38.985Z,24.60
2023-04-14T11:57:17.412Z,24.10
2023-04-14T11:59:45.472Z,23.30
2023-04-14T12:02:22.028Z,23.20
2023-04-14T12:04:50.654Z,23.50
2023-04-14T12:07:19.883Z,22.90
2023-04-14T12:09:48.921Z,22.30
2023-04-14T12:12:17.578Z,21.70
2023-04-14T12:14:46.687Z,21.50
2023-04-14T12:17:15.239Z,21.30
2023-04-14T12:19:42.674Z,21.30
2023-04-14T12:22:09.518Z,20.90
2023-04-14T12:24:42.316Z,20.70
2023-04-14T12:27:09.915Z,20.60
2023-04-14T12:29:36.683Z,20.80
2023-04-14T12:32:10.722Z,18.80
2023-04-14T12:34:37.482Z,18.10
2023-04-14T12:37:11.284Z,18.00
2023-04-14T12:39:59.641Z,17.90
2023-04-14T12:42:27.591Z,17.40
2023-04-14T12:44:59.249Z,18.00
2023-04-14T12:47:33.879Z,17.50
2023-04-14T12:50:02.365Z,17.50
2023-04-14T12:52:33.403Z,17.80
2023-04-14T12:55:00.018Z,18.20
2023-04-14T12:57:28.291Z,19.30
2023-04-14T12:59:54.843Z,19.70
2023-04-14T13:02:22.186Z,20.00
2023-04-14T13:04:49.437Z,21.30
2023-04-14T13:07:16.018Z,22.30
2023-04-14T13:09:43.486Z,22.10
2023-04-14T13:12:10.212Z,22.90
2023-04-14T13:14:36.922Z,22.60
2023-04-14T13:17:06.074Z,21.70
2023-04-14T13:19:32.679Z,21.10
2023-04-14T13:21:59.201Z,21.40
2023-04-14T13:24:25.712Z,21.10
2023-04-14T13:26:52.208Z,20.70
2023-04-14T13:29:18.934Z,20.40
2023-04-14T13:31:45.778Z,21.00
2023-04-14T13:34:12.312Z,21.60
2023-04-14T13:36:38.979Z,22.10
2023-04-14T13:39:06.099Z,22.70
2023-04-14T13:41:32.668Z,22.70
2023-04-14T13:43:59.198Z,21.90
2023-04-14T13:46:25.798Z,21.30
2023-04-14T13:48:52.320Z,19.70
2023-04-14T13:51:18.937Z,19.50
2023-04-14T13:53:46.172Z,20.60
2023-04-14T13:56:12.681Z,21.10
2023-04-14T13:58:39.243Z,22.00
2023-04-14T14:01:11.133Z,22.30
2023-04-14T14:03:41.519Z,21.80
2023-04-14T14:06:08.182Z,21.80
2023-04-14T14:08:38.754Z,21.50
2023-04-14T14:11:06.050Z,20.20
2023-04-14T14:13:34.028Z,19.60
2023-04-14T14:16:00.594Z,19.00
2023-04-14T14:18:27.359Z,18.80
2023-04-14T14:20:53.904Z,19.00
2023-04-14T14:23:20.470Z,18.60
2023-04-14T14:25:46.999Z,18.70
2023-04-14T14:28:13.782Z,18.40
2023-04-14T14:30:40.503Z,18.00
2023-04-14T14:33:07.288Z,18.00
2023-04-14T14:35:33.838Z,18.10
2023-04-14T14:38:01.013Z,17.70
2023-04-14T14:40:28.462Z,17.30
2023-04-14T14:42:55.260Z,17.60
2023-04-14T14:45:30.677Z,17.70
2023-04-14T14:47:58.131Z,18.20
2023-04-14T14:50:24.662Z,18.80
2023-04-14T14:52:51.423Z,18.70
2023-04-14T14:55:17.963Z,18.30
2023-04-14T14:57:44.478Z,18.00
2023-04-14T15:00:11.679Z,17.70
2023-04-14T15:02:38.616Z,17.40
2023-04-14T15:05:07.125Z,17.50
2023-04-14T15:07:33.815Z,17.30
2023-04-14T15:10:01.430Z,17.30
2023-04-14T15:12:28.185Z,17.40
2023-04-14T15:14:54.727Z,18.20
2023-04-14T15:17:21.295Z,18.50
2023-04-14T15:19:47.956Z,18.50
2023-04-14T15:22:14.907Z,18.70
2023-04-14T15:24:41.486Z,18.70
2023-04-14T15:27:08.063Z,18.40
2023-04-14T15:29:34.583Z,18.40
2023-04-14T15:32:01.264Z,18.40
2023-04-14T15:34:28.058Z,18.60
2023-04-14T15:36:54.879Z,18.40
2023-04-14T15:39:21.444Z,18.50
2023-04-14T15:41:50.198Z,18.40
2023-04-14T15:44:16.724Z,18.90
2023-04-14T15:46:43.233Z,18.60
2023-04-14T15:49:09.778Z,18.30
2023-04-14T15:51:36.622Z,17.90
2023-04-14T15:54:04.225Z,17.70
2023-04-14T15:56:31.086Z,17.40
2023-04-14T15:58:57.722Z,17.50
2023-04-14T16:01:24.302Z,17.60
2023-04-14T16:04:22.232Z,17.50
2023-04-14T16:06:37.862Z,17.20
2023-04-14T16:09:04.958Z,17.20
2023-04-14T16:11:31.585Z,17.10
2023-04-14T16:13:58.095Z,17.10
2023-04-14T16:16:24.983Z,17.10
2023-04-14T16:18:52.640Z,17.30
2023-04-14T16:21:19.139Z,17.10
2023-04-14T16:23:45.790Z,17.10
2023-04-14T16:26:12.778Z,16.90
2023-04-14T16:28:39.304Z,17.00
2023-04-14T16:31:06.307Z,16.90
2023-04-14T16:33:32.936Z,17.00
2023-04-14T16:36:07.174Z,17.10
2023-04-14T16:38:33.785Z,18.00
2023-04-14T16:41:01.939Z,18.80
2023-04-14T16:43:28.555Z,19.40
2023-04-14T16:46:06.877Z,19.80
2023-04-14T16:48:34.850Z,19.80
2023-04-14T16:51:09.029Z,19.30
2023-04-14T16:53:36.391Z,18.80
2023-04-14T16:56:07.357Z,19.00
2023-04-14T16:58:34.733Z,19.00
2023-04-14T17:01:01.433Z,18.80
2023-04-14T17:03:28.316Z,18.60
2023-04-14T17:05:55.188Z,18.20
2023-04-14T17:08:21.918Z,18.30
2023-04-14T17:10:48.499Z,18.10
2023-04-14T17:13:15.179Z,18.10
2023-04-14T17:15:43.820Z,18.10
2023-04-14T17:18:11.433Z,18.00
2023-04-14T17:20:41.059Z,18.20
2023-04-14T17:23:09.235Z,18.10
2023-04-14T17:25:37.141Z,18.70
2023-04-14T17:28:06.986Z,18.70
2023-04-14T17:30:34.735Z,18.90
2023-04-14T17:33:07.479Z,18.80
2023-04-14T17:35:35.305Z,18.70
2023-04-14T17:38:02.149Z,18.40
2023-04-14T17:40:28.871Z,18.00
2023-04-14T17:42:56.234Z,17.40
2023-04-14T17:45:23.157Z,16.90
2023-04-14T17:47:56.251Z,16.50
2023-04-14T17:50:23.919Z,16.10
2023-04-14T17:52:51.447Z,16.00
2023-04-14T17:55:18.355Z,15.80
2023-04-14T17:57:46.562Z,15.50
2023-04-14T18:00:14.517Z,15.40
2023-04-14T18:02:41.352Z,15.10
2023-04-14T18:05:09.648Z,14.90
2023-04-14T18:07:38.955Z,14.70
2023-04-14T18:10:06.400Z,14.40
2023-04-14T18:12:33.219Z,14.30
2023-04-14T18:14:59.707Z,14.10
2023-04-14T18:17:26.344Z,13.80
2023-04-14T18:19:56.239Z,13.60
2023-04-14T18:22:22.792Z,13.50
2023-04-14T18:24:50.676Z,13.30
2023-04-14T18:29:47.374Z,12.80
2023-04-14T18:32:14.385Z,12.50
2023-04-14T18:34:40.900Z,12.40
2023-04-14T18:37:07.818Z,12.20
2023-04-14T18:39:36.174Z,12.10
2023-04-14T18:42:03.468Z,11.90
2023-04-14T18:44:30.004Z,11.60
2023-04-14T18:46:56.766Z,11.40
2023-04-14T18:49:23.899Z,11.30
2023-04-14T18:51:52.351Z,11.20
2023-04-14T18:54:19.023Z,11.00
2023-04-14T18:56:45.814Z,10.90
2023-04-14T18:59:12.480Z,10.80
2023-04-14T19:01:39.390Z,10.80
2023-04-14T19:04:09.082Z,10.70
2023-04-14T19:06:35.773Z,10.60
2023-04-14T19:09:04.534Z,10.50
2023-04-14T19:11:35.670Z,10.40
2023-04-14T19:14:03.864Z,10.30
2023-04-14T19:16:30.849Z,10.20
2023-04-14T19:18:58.421Z,10.10
2023-04-14T19:21:25.915Z,10.00
2023-04-14T19:23:54.325Z,9.90
2023-04-14T19:26:21.220Z,9.80
2023-04-14T19:28:47.847Z,9.80
2023-04-14T19:31:15.523Z,9.80
2023-04-14T19:33:42.091Z,9.90
2023-04-14T19:36:15.433Z,9.90
2023-04-14T19:38:42.200Z,9.90
2023-04-14T19:41:09.396Z,9.80
2023-04-14T19:43:36.390Z,9.70
2023-04-14T19:46:04.935Z,9.70
2023-04-14T19:48:35.060Z,9.70
2023-04-14T19:51:02.247Z,9.70
2023-04-14T19:53:29.223Z,9.70
2023-04-14T19:55:57.775Z,9.80
2023-04-14T19:58:26.836Z,9.70
2023-04-14T20:00:56.986Z,9.60
2023-04-14T20:03:24.517Z,9.60
2023-04-14T20:05:54.592Z,9.60
2023-04-14T20:08:26.181Z,9.70
2023-04-14T20:10:54.038Z,9.60
2023-04-14T20:13:22.709Z,9.60
2023-04-14T20:15:50.541Z,9.60
2023-04-14T20:18:17.822Z,9.50
2023-04-14T20:20:45.176Z,9.50
2023-04-14T20:23:11.814Z,9.40
2023-04-14T20:25:39.368Z,9.30
2023-04-14T20:28:07.397Z,9.20
2023-04-14T20:30:33.981Z,9.10
2023-04-14T20:33:03.987Z,9.00
2023-04-14T20:35:31.271Z,8.80
2023-04-14T20:37:58.068Z,8.50
2023-04-14T20:40:24.895Z,8.40
2023-04-14T20:42:51.424Z,8.30
2023-04-14T20:45:18.098Z,8.20
2023-04-14T20:47:44.948Z,8.10
2023-04-14T20:50:12.216Z,8.20
2023-04-14T20:52:39.711Z,8.30
2023-04-14T20:55:06.810Z,8.20
2023-04-14T20:57:33.332Z,8.00
2023-04-14T21:00:00.044Z,7.90
2023-04-14T21:02:27.376Z,7.90
2023-04-14T21:04:53.975Z,7.80
2023-04-14T21:07:20.540Z,7.70
2023-04-14T21:09:47.130Z,7.50
2023-04-14T21:12:15.124Z,7.40
2023-04-14T21:15:30.284Z,7.30
2023-04-14T21:17:30.181Z,7.10
2023-04-14T21:19:57.330Z,6.90
2023-04-14T21:22:23.926Z,6.90
2023-04-14T21:24:50.646Z,6.80
2023-04-14T21:27:17.343Z,6.70
2023-04-14T21:29:44.874Z,6.80
2023-04-14T21:32:11.560Z,6.90
2023-04-14T21:34:38.172Z,7.10
2023-04-14T21:37:04.829Z,7.20
2023-04-14T21:39:33.055Z,7.30
2023-04-14T21:42:01.332Z,7.50
2023-04-14T21:44:28.099Z,7.50
2023-04-14T21:46:55.514Z,7.40
2023-04-14T21:49:22.380Z,7.30
2023-04-14T21:51:52.417Z,7.30
2023-04-14T21:54:19.531Z,7.30
2023-04-14T21:56:46.163Z,7.30
2023-04-14T21:59:12.869Z,7.00
2023-04-14T22:01:39.880Z,7.00
2023-04-14T22:04:06.694Z,7.00
2023-04-14T22:06:35.198Z,6.90
2023-04-14T22:09:02.095Z,6.80
2023-04-14T22:11:30.691Z,6.80
2023-04-14T22:13:58.064Z,6.70
2023-04-14T22:16:25.328Z,6.60
2023-04-14T22:18:52.058Z,6.60
2023-04-14T22:21:18.667Z,6.60
2023-04-14T22:23:45.217Z,6.60
2023-04-14T22:26:13.201Z,6.70
2023-04-14T22:28:40.864Z,6.80
2023-04-14T22:31:07.714Z,6.90
2023-04-14T22:33:35.168Z,7.00
2023-04-14T22:36:03.681Z,7.00
2023-04-14T22:38:30.912Z,7.00
2023-04-14T22:40:57.436Z,7.10
2023-04-14T22:43:24.126Z,7.10
2023-04-14T22:45:50.875Z,7.10
2023-04-14T22:48:17.680Z,7.00
2023-04-14T22:50:44.237Z,6.90
2023-04-14T22:53:10.887Z,6.90
2023-04-14T22:55:37.722Z,6.80
2023-04-14T22:58:04.310Z,6.80
2023-04-14T23:00:31.341Z,6.70
2023-04-14T23:02:59.635Z,6.70
2023-04-14T23:05:26.346Z,6.90
2023-04-14T23:07:52.892Z,6.80
2023-04-14T23:10:19.452Z,6.80
2023-04-14T23:12:46.211Z,6.80
2023-04-14T23:15:12.883Z,6.70
2023-04-14T23:17:39.394Z,6.70
2023-04-14T23:20:06.927Z,6.70
2023-04-14T23:22:33.789Z,6.60
2023-04-14T23:25:00.619Z,6.50
2023-04-14T23:27:27.926Z,6.40
2023-04-14T23:29:54.472Z,6.30
2023-04-14T23:32:21.103Z,6.20
2023-04-14T23:34:48.228Z,6.00
2023-04-14T23:37:14.807Z,6.00
2023-04-14T23:39:41.345Z,6.00
2023-04-14T23:42:08.393Z,6.00
2023-04-14T23:44:34.888Z,5.90
2023-04-14T23:47:02.205Z,5.90
2023-04-14T23:49:34.012Z,5.90
2023-04-14T23:52:03.114Z,5.80
2023-04-14T23:54:30.830Z,5.80
2023-04-14T23:56:58.049Z,5.80
2023-04-14T23:59:24.685Z,5.90
